createdAt,value
2022-10-18T00:00:20.919Z,10.73
2022-10-18T00:02:48.114Z,15.15
2022-10-18T00:05:16.447Z,11.90
2022-10-18T00:07:43.686Z,10.67
2022-10-18T00:10:11.066Z,11.60
2022-10-18T00:12:38.664Z,9.65
2022-10-18T00:15:07.681Z,14.40
2022-10-18T00:17:36.046Z,9.63
2022-10-18T00:20:03.977Z,11.17
2022-10-18T00:22:31.441Z,13.52
2022-10-18T00:24:58.903Z,14.77
2022-10-18T00:27:26.134Z,14.88
2022-10-18T00:29:54.203Z,12.70
2022-10-18T00:32:21.485Z,13.23
2022-10-18T00:34:48.874Z,12.50
2022-10-18T00:37:16.239Z,12.50
2022-10-18T00:39:43.682Z,9.05
2022-10-18T00:42:19.445Z,8.40
2022-10-18T00:44:46.589Z,14.45
2022-10-18T00:47:15.415Z,14.13
2022-10-18T00:49:53.274Z,10.68
2022-10-18T00:52:24.497Z,10.63
2022-10-18T00:54:53.420Z,11.45
2022-10-18T00:57:20.983Z,10.02
2022-10-18T00:59:48.455Z,11.27
2022-10-18T01:02:18.340Z,11.82
2022-10-18T01:04:47.151Z,11.90
2022-10-18T01:07:41.838Z,17.08
2022-10-18T01:10:27.242Z,10.48
2022-10-18T01:13:25.964Z,12.10
2022-10-18T01:16:11.830Z,9.82
2022-10-18T01:18:49.097Z,9.23
2022-10-18T01:21:32.741Z,10.70
2022-10-18T01:24:30.795Z,11.75
2022-10-18T01:27:21.141Z,13.43
2022-10-18T01:30:17.624Z,11.73
2022-10-18T01:32:54.265Z,14.65
2022-10-18T01:35:44.758Z,8.77
2022-10-18T01:38:17.073Z,7.90
2022-10-18T01:40:47.507Z,8.00
2022-10-18T01:43:15.902Z,11.70
2022-10-18T01:45:43.210Z,8.67
2022-10-18T01:48:11.381Z,12.65
2022-10-18T01:50:38.572Z,9.02
2022-10-18T01:53:05.769Z,14.27
2022-10-18T01:55:39.945Z,8.88
2022-10-18T01:58:17.567Z,13.93
2022-10-18T02:00:44.953Z,8.82
2022-10-18T02:03:23.389Z,11.73
2022-10-18T02:05:59.118Z,16.90
2022-10-18T02:08:51.733Z,20.95
2022-10-18T02:11:19.178Z,10.30
2022-10-18T02:13:55.747Z,10.93
2022-10-18T02:16:28.536Z,7.45
2022-10-18T02:19:02.484Z,14.65
2022-10-18T02:21:30.527Z,14.75
2022-10-18T02:23:58.613Z,11.00
2022-10-18T02:26:26.299Z,9.70
2022-10-18T02:28:53.668Z,10.90
2022-10-18T02:31:21.842Z,11.32
2022-10-18T02:34:15.105Z,15.23
2022-10-18T02:36:50.005Z,11.10
2022-10-18T02:39:23.548Z,14.40
2022-10-18T02:41:50.781Z,15.68
2022-10-18T02:44:18.040Z,17.52
2022-10-18T02:46:45.726Z,15.80
2022-10-18T02:49:12.940Z,13.65
2022-10-18T02:51:40.137Z,12.90
2022-10-18T02:54:08.410Z,15.52
2022-10-18T02:56:36.300Z,13.13
2022-10-18T02:59:05.025Z,11.88
2022-10-18T03:01:33.141Z,18.50
2022-10-18T03:04:00.662Z,11.30
2022-10-18T03:06:27.865Z,11.25
2022-10-18T03:08:55.289Z,13.63
2022-10-18T03:11:22.813Z,10.25
2022-10-18T03:13:51.225Z,14.43
2022-10-18T03:16:18.537Z,11.63
2022-10-18T03:18:45.876Z,11.52
2022-10-18T03:21:13.084Z,11.35
2022-10-18T03:23:42.191Z,10.77
2022-10-18T03:28:36.777Z,11.13
2022-10-18T03:31:05.187Z,13.60
2022-10-18T03:33:33.124Z,20.27
2022-10-18T03:36:00.376Z,11.75
2022-10-18T03:38:27.942Z,11.60
2022-10-18T03:40:55.160Z,10.80
2022-10-18T03:43:22.643Z,11.80
2022-10-18T03:45:49.961Z,15.05
2022-10-18T03:48:17.172Z,17.38
2022-10-18T03:50:44.746Z,12.90
2022-10-18T03:53:16.384Z,11.63
2022-10-18T03:55:43.622Z,13.68
2022-10-18T03:58:11.013Z,10.60
2022-10-18T04:00:38.362Z,13.95
2022-10-18T04:03:05.836Z,11.60
2022-10-18T04:05:34.413Z,12.27
2022-10-18T04:08:01.620Z,14.70
2022-10-18T04:10:28.919Z,14.77
2022-10-18T04:12:56.139Z,13.95
2022-10-18T04:15:23.411Z,10.82
2022-10-18T04:17:50.630Z,15.43
2022-10-18T04:20:18.035Z,11.32
2022-10-18T04:22:45.241Z,8.80
2022-10-18T04:25:12.449Z,11.15
2022-10-18T04:27:40.780Z,9.80
2022-10-18T04:30:08.385Z,8.40
2022-10-18T04:32:35.774Z,11.65
2022-10-18T04:35:04.043Z,11.85
2022-10-18T04:37:31.743Z,9.38
2022-10-18T04:39:59.116Z,15.60
2022-10-18T04:42:26.396Z,15.25
2022-10-18T04:44:53.585Z,16.05
2022-10-18T04:47:20.827Z,16.40
2022-10-18T04:49:48.025Z,18.20
2022-10-18T04:52:15.319Z,16.23
2022-10-18T04:54:42.529Z,13.00
2022-10-18T04:57:09.934Z,13.00
2022-10-18T04:59:37.393Z,14.68
2022-10-18T05:02:05.094Z,10.45
2022-10-18T05:04:32.332Z,10.80
2022-10-18T05:06:59.708Z,8.95
2022-10-18T05:09:27.035Z,9.35
2022-10-18T05:11:54.230Z,8.73
2022-10-18T05:14:21.440Z,11.13
2022-10-18T05:16:48.673Z,9.48
2022-10-18T05:19:15.906Z,12.52
2022-10-18T05:21:44.084Z,7.45
2022-10-18T05:24:12.445Z,12.98
2022-10-18T05:26:39.656Z,8.17
2022-10-18T05:29:07.345Z,11.30
2022-10-18T05:31:34.659Z,10.50
2022-10-18T05:34:02.216Z,11.23
2022-10-18T05:36:29.432Z,13.55
2022-10-18T05:38:58.655Z,11.32
2022-10-18T05:41:28.228Z,13.80
2022-10-18T05:43:55.418Z,15.00
2022-10-18T05:46:22.646Z,10.20
2022-10-18T05:48:51.402Z,11.60
2022-10-18T05:51:19.399Z,15.68
2022-10-18T05:53:46.623Z,11.93
2022-10-18T05:56:14.404Z,11.70
2022-10-18T05:58:42.562Z,12.82
2022-10-18T06:01:10.588Z,16.17
2022-10-18T06:03:37.799Z,15.93
2022-10-18T06:06:10.114Z,12.75
2022-10-18T06:08:38.179Z,13.15
2022-10-18T06:11:23.512Z,17.42
2022-10-18T06:13:51.600Z,16.67
2022-10-18T06:16:22.630Z,12.00
2022-10-18T06:18:52.509Z,14.10
2022-10-18T06:21:20.779Z,15.65
2022-10-18T06:23:52.106Z,16.73
2022-10-18T06:26:21.855Z,14.70
2022-10-18T06:28:49.247Z,15.43
2022-10-18T06:31:16.713Z,17.83
2022-10-18T06:33:43.957Z,19.65
2022-10-18T06:36:19.580Z,21.88
2022-10-18T06:38:46.842Z,20.75
2022-10-18T06:41:14.093Z,19.15
2022-10-18T06:43:41.274Z,19.33
2022-10-18T06:46:09.111Z,21.38
2022-10-18T06:48:36.952Z,19.33
2022-10-18T06:51:05.800Z,20.13
2022-10-18T06:53:40.814Z,18.42
2022-10-18T06:56:13.305Z,20.98
2022-10-18T06:58:41.097Z,19.55
2022-10-18T07:01:13.780Z,19.05
2022-10-18T07:03:48.151Z,17.65
2022-10-18T07:06:17.678Z,17.48
2022-10-18T07:08:45.698Z,20.38
2022-10-18T07:11:25.575Z,15.18
2022-10-18T07:13:55.357Z,15.32
2022-10-18T07:16:22.608Z,15.80
2022-10-18T07:19:23.199Z,15.88
2022-10-18T07:21:51.480Z,15.02
2022-10-18T07:24:18.722Z,19.75
2022-10-18T07:26:45.981Z,17.05
2022-10-18T07:29:13.447Z,15.75
2022-10-18T07:31:41.116Z,14.93
2022-10-18T07:34:11.009Z,15.65
2022-10-18T07:36:45.378Z,20.23
2022-10-18T07:39:12.569Z,17.60
2022-10-18T07:41:39.908Z,19.73
2022-10-18T07:44:09.988Z,16.08
2022-10-18T07:46:37.279Z,21.02
2022-10-18T07:49:04.751Z,15.80
2022-10-18T07:51:48.955Z,14.50
2022-10-18T07:54:18.277Z,16.35
2022-10-18T07:59:45.129Z,20.15
2022-10-18T08:02:14.834Z,15.38
2022-10-18T08:04:42.080Z,19.58
2022-10-18T08:07:09.321Z,16.70
2022-10-18T08:09:36.549Z,18.58
2022-10-18T08:12:06.313Z,20.52
2022-10-18T08:14:33.681Z,15.80
2022-10-18T08:17:06.019Z,15.85
2022-10-18T08:19:33.238Z,15.85
2022-10-18T08:22:02.262Z,16.65
2022-10-18T08:24:43.869Z,25.55
2022-10-18T08:27:12.969Z,23.05
2022-10-18T08:29:56.507Z,21.23
2022-10-18T08:32:33.576Z,25.88
2022-10-18T08:35:05.671Z,22.90
2022-10-18T08:38:00.353Z,15.75
2022-10-18T08:40:27.911Z,22.13
2022-10-18T08:43:23.279Z,16.17
2022-10-18T08:46:00.150Z,18.35
2022-10-18T08:49:04.489Z,16.30
2022-10-18T08:51:58.141Z,14.55
2022-10-18T08:55:01.180Z,17.27
2022-10-18T08:57:29.025Z,21.50
2022-10-18T08:59:56.469Z,15.40
2022-10-18T09:03:02.824Z,16.70
2022-10-18T09:05:48.132Z,17.40
2022-10-18T09:08:55.426Z,15.10
2022-10-18T09:12:01.057Z,22.00
2022-10-18T09:57:55.622Z,20.60
2022-10-18T10:03:51.605Z,20.83
2022-10-18T10:09:22.452Z,16.27
2022-10-18T10:11:51.876Z,19.92
2022-10-18T10:14:27.354Z,18.27
2022-10-18T10:17:05.766Z,14.88
2022-10-18T10:19:37.774Z,17.83
2022-10-18T10:22:08.918Z,19.70
2022-10-18T10:24:53.268Z,19.70
2022-10-18T10:27:24.919Z,17.35
2022-10-18T10:29:57.665Z,17.00
2022-10-18T10:32:28.987Z,16.10
2022-10-18T10:34:56.451Z,13.80
2022-10-18T10:37:23.569Z,16.20
2022-10-18T10:40:20.516Z,17.30
2022-10-18T10:43:18.271Z,17.15
2022-10-18T10:46:06.659Z,18.50
2022-10-18T10:49:09.536Z,18.08
2022-10-18T10:51:42.111Z,12.45
2022-10-18T10:54:22.048Z,16.73
2022-10-18T10:57:00.482Z,16.80
2022-10-18T10:59:34.103Z,12.40
2022-10-18T11:02:20.622Z,13.30
2022-10-18T11:04:56.041Z,13.63
2022-10-18T11:07:43.529Z,17.35
2022-10-18T11:10:19.707Z,13.40
2022-10-18T11:13:05.626Z,15.38
2022-10-18T11:15:52.133Z,16.60
2022-10-18T11:18:38.632Z,14.43
2022-10-18T11:21:10.865Z,11.80
2022-10-18T11:23:39.521Z,12.70
2022-10-18T11:26:12.749Z,15.75
2022-10-18T11:28:59.063Z,14.05
2022-10-18T11:31:59.670Z,11.93
2022-10-18T11:35:04.386Z,14.75
2022-10-18T11:37:50.907Z,13.68
2022-10-18T11:40:35.005Z,20.23
2022-10-18T11:43:14.151Z,14.68
2022-10-18T11:49:11.947Z,14.82
2022-10-18T11:52:08.237Z,18.58
2022-10-18T11:54:47.823Z,12.55
2022-10-18T11:57:47.125Z,18.80
2022-10-18T12:00:20.112Z,17.95
2022-10-18T12:03:00.943Z,11.80
2022-10-18T12:05:30.062Z,11.73
2022-10-18T12:08:14.022Z,16.73
2022-10-18T12:11:03.863Z,16.73
2022-10-18T12:13:41.068Z,12.45
2022-10-18T12:16:09.602Z,11.00
2022-10-18T12:18:45.840Z,14.40
2022-10-18T12:21:13.946Z,12.30
2022-10-18T12:23:49.919Z,12.82
2022-10-18T12:26:21.756Z,15.95
2022-10-18T12:29:10.759Z,13.68
2022-10-18T12:34:21.250Z,20.63
2022-10-18T12:37:09.656Z,15.43
2022-10-18T12:40:09.082Z,12.38
2022-10-18T12:42:42.615Z,14.80
2022-10-18T12:45:28.212Z,13.93
2022-10-18T12:48:00.584Z,15.63
2022-10-18T12:50:37.682Z,13.77
2022-10-18T12:53:10.660Z,15.52
2022-10-18T12:55:39.923Z,13.27
2022-10-18T12:58:23.541Z,16.23
2022-10-18T13:01:12.328Z,11.73
2022-10-18T13:03:56.975Z,12.88
2022-10-18T13:06:24.529Z,11.23
2022-10-18T13:09:18.719Z,14.35
2022-10-18T13:11:45.999Z,13.30
2022-10-18T13:14:48.342Z,13.70
2022-10-18T13:17:45.459Z,15.68
2022-10-18T13:20:27.717Z,16.73
2022-10-18T13:23:24.031Z,18.60
2022-10-18T13:26:17.370Z,15.98
2022-10-18T13:28:57.198Z,14.38
2022-10-18T13:31:35.806Z,22.10
2022-10-18T13:34:23.054Z,16.88
2022-10-18T13:36:58.339Z,21.98
2022-10-18T13:39:26.277Z,18.45
2022-10-18T13:41:57.778Z,18.17
2022-10-18T13:44:39.937Z,19.23
2022-10-18T13:47:07.032Z,16.38
2022-10-18T13:49:40.345Z,19.88
2022-10-18T13:52:43.663Z,17.27
2022-10-18T13:55:50.759Z,21.35
2022-10-18T13:58:41.121Z,16.38
2022-10-18T14:01:17.873Z,18.10
2022-10-18T14:04:21.995Z,15.57
2022-10-18T14:06:49.391Z,14.75
2022-10-18T14:09:26.350Z,15.77
2022-10-18T14:12:26.606Z,16.33
2022-10-18T14:15:19.190Z,13.38
2022-10-18T14:18:13.951Z,15.77
2022-10-18T14:21:01.282Z,13.32
2022-10-18T14:23:35.849Z,15.35
2022-10-18T14:26:20.645Z,14.68
2022-10-18T14:29:16.267Z,27.10
2022-10-18T14:31:53.713Z,21.40
2022-10-18T14:34:21.503Z,17.15
2022-10-18T14:36:49.957Z,16.50
2022-10-18T14:39:29.004Z,17.17
2022-10-18T14:41:57.702Z,19.65
2022-10-18T14:44:30.312Z,17.23
2022-10-18T14:47:01.405Z,20.90
2022-10-18T14:49:29.243Z,14.55
2022-10-18T14:52:00.770Z,20.80
2022-10-18T14:54:33.571Z,19.20
2022-10-18T14:57:02.606Z,21.75
2022-10-18T14:59:40.651Z,18.10
2022-10-18T15:02:22.851Z,15.48
2022-10-18T15:05:05.513Z,14.13
2022-10-18T15:07:33.708Z,19.17
2022-10-18T15:10:02.840Z,20.37
2022-10-18T15:12:36.822Z,25.17
2022-10-18T15:15:22.693Z,22.50
2022-10-18T15:17:50.194Z,19.38
2022-10-18T15:20:26.731Z,19.70
2022-10-18T15:22:54.400Z,17.77
2022-10-18T15:25:22.411Z,19.23
2022-10-18T15:27:57.779Z,22.27
2022-10-18T15:30:37.817Z,19.23
2022-10-18T15:33:10.845Z,21.50
2022-10-18T15:35:39.328Z,22.35
2022-10-18T15:38:28.359Z,18.50
2022-10-18T15:43:29.045Z,20.48
2022-10-18T15:46:01.731Z,25.25
2022-10-18T15:48:35.150Z,23.27
2022-10-18T15:51:07.828Z,23.13
2022-10-18T15:53:45.687Z,23.77
2022-10-18T15:56:26.735Z,23.83
2022-10-18T15:58:59.372Z,28.05
2022-10-18T16:01:37.751Z,27.98
2022-10-18T16:04:24.425Z,22.42
2022-10-18T16:06:51.657Z,22.27
2022-10-18T16:09:20.906Z,29.88
2022-10-18T16:14:24.484Z,29.38
2022-10-18T16:16:57.082Z,23.23
2022-10-18T16:19:24.293Z,27.92
2022-10-18T16:21:52.768Z,23.77
2022-10-18T16:24:20.323Z,23.83
2022-10-18T16:26:48.100Z,22.05
2022-10-18T16:29:21.911Z,24.58
2022-10-18T16:31:50.808Z,24.80
2022-10-18T16:34:18.295Z,25.52
2022-10-18T16:36:45.676Z,25.08
2022-10-18T16:39:16.323Z,22.35
2022-10-18T16:41:43.863Z,25.75
2022-10-18T16:44:11.421Z,27.40
2022-10-18T16:46:38.816Z,26.60
2022-10-18T16:49:06.184Z,29.73
2022-10-18T16:51:33.575Z,28.83
2022-10-18T16:54:00.879Z,30.35
2022-10-18T16:56:30.722Z,30.77
2022-10-18T16:58:58.331Z,30.52
2022-10-18T17:01:26.239Z,24.58
2022-10-18T17:03:53.564Z,28.98
2022-10-18T17:06:29.324Z,24.42
2022-10-18T17:08:57.028Z,24.48
2022-10-18T17:11:26.690Z,31.42
2022-10-18T17:13:54.424Z,28.33
2022-10-18T17:19:03.614Z,48.00
2022-10-18T17:21:31.361Z,46.97
2022-10-18T17:24:00.811Z,42.08
2022-10-18T17:26:29.642Z,41.45
2022-10-18T17:29:00.657Z,45.80
2022-10-18T17:31:29.029Z,42.85
2022-10-18T17:33:58.295Z,48.70
2022-10-18T17:38:54.049Z,39.58
2022-10-18T17:41:21.624Z,42.70
2022-10-18T17:43:49.091Z,48.38
2022-10-18T17:46:17.744Z,51.95
2022-10-18T17:48:45.239Z,43.60
2022-10-18T17:51:14.612Z,49.33
2022-10-18T17:53:42.160Z,58.33
2022-10-18T17:56:10.861Z,48.85
2022-10-18T17:58:38.319Z,48.97
2022-10-18T18:01:13.714Z,46.47
2022-10-18T18:03:41.524Z,36.50
2022-10-18T18:06:22.812Z,40.95
2022-10-18T18:08:50.910Z,34.42
2022-10-18T18:11:18.419Z,41.67
2022-10-18T18:13:45.578Z,38.75
2022-10-18T18:16:22.764Z,39.58
2022-10-18T18:18:52.415Z,39.63
2022-10-18T18:21:20.374Z,37.30
2022-10-18T18:23:47.755Z,41.85
2022-10-18T18:26:15.861Z,44.47
2022-10-18T18:28:43.210Z,47.05
2022-10-18T18:31:24.867Z,40.45
2022-10-18T18:33:54.040Z,44.38
2022-10-18T18:36:21.737Z,38.65
2022-10-18T18:38:53.041Z,40.60
2022-10-18T18:41:24.894Z,44.60
2022-10-18T18:46:21.020Z,42.15
2022-10-18T18:48:48.780Z,46.40
2022-10-18T18:51:18.423Z,47.03
2022-10-18T18:53:46.581Z,44.60
2022-10-18T18:58:52.956Z,88.40
2022-10-18T19:01:23.314Z,72.00
2022-10-18T19:03:52.206Z,63.40
2022-10-18T19:06:21.732Z,57.38
2022-10-18T19:08:49.701Z,39.20
2022-10-18T19:11:20.650Z,34.08
2022-10-18T19:13:48.913Z,36.55
2022-10-18T19:16:32.230Z,32.08
2022-10-18T19:19:15.186Z,29.50
2022-10-18T19:21:45.488Z,28.55
2022-10-18T19:24:12.841Z,31.20
2022-10-18T19:26:47.969Z,33.75
2022-10-18T19:29:18.948Z,34.42
2022-10-18T19:31:46.508Z,32.35
2022-10-18T19:34:14.797Z,34.88
2022-10-18T19:36:43.896Z,31.10
2022-10-18T19:39:32.126Z,27.70
2022-10-18T19:42:03.205Z,32.65
2022-10-18T19:44:32.351Z,22.17
2022-10-18T19:46:59.860Z,29.48
2022-10-18T19:49:28.591Z,27.50
2022-10-18T19:51:56.514Z,29.58
2022-10-18T19:54:24.408Z,25.50
2022-10-18T19:56:51.916Z,26.73
2022-10-18T19:59:19.232Z,25.38
2022-10-18T20:01:46.670Z,26.08
2022-10-18T20:04:17.097Z,24.05
2022-10-18T20:06:44.632Z,26.27
2022-10-18T20:09:16.184Z,25.65
2022-10-18T20:11:46.700Z,28.45
2022-10-18T20:14:13.869Z,28.60
2022-10-18T20:16:41.019Z,29.85
2022-10-18T20:19:08.451Z,23.33
2022-10-18T20:21:36.177Z,25.02
2022-10-18T20:24:04.798Z,27.08
2022-10-18T20:26:32.717Z,25.50
2022-10-18T20:29:00.073Z,20.92
2022-10-18T20:31:31.674Z,30.92
2022-10-18T20:34:00.934Z,25.00
2022-10-18T20:38:56.003Z,27.00
2022-10-18T20:41:26.383Z,28.70
2022-10-18T20:44:13.387Z,25.88
2022-10-18T20:46:41.393Z,30.88
2022-10-18T20:49:10.673Z,29.60
2022-10-18T20:54:06.658Z,27.85
2022-10-18T20:56:35.388Z,34.13
2022-10-18T20:59:03.093Z,26.52
2022-10-18T21:01:32.019Z,31.10
2022-10-18T21:04:01.596Z,26.85
2022-10-18T21:06:30.843Z,31.05
2022-10-18T21:11:27.803Z,25.45
2022-10-18T21:13:58.811Z,23.27
2022-10-18T21:16:27.010Z,23.75
2022-10-18T21:18:54.804Z,23.63
2022-10-18T21:21:25.599Z,21.23
2022-10-18T21:23:53.483Z,20.20
2022-10-18T21:26:26.076Z,21.52
2022-10-18T21:28:55.186Z,22.77
2022-10-18T21:31:24.971Z,18.02
2022-10-18T21:34:04.388Z,20.30
2022-10-18T21:36:33.871Z,18.95
2022-10-18T21:39:02.348Z,24.35
2022-10-18T21:41:30.521Z,23.57
2022-10-18T21:43:57.765Z,24.40
2022-10-18T21:46:28.408Z,28.20
2022-10-18T21:48:56.667Z,21.95
2022-10-18T21:51:28.045Z,19.25
2022-10-18T21:53:56.738Z,18.17
2022-10-18T21:56:26.477Z,19.33
2022-10-18T21:58:53.898Z,24.10
2022-10-18T22:01:27.132Z,20.90
2022-10-18T22:03:55.689Z,20.67
2022-10-18T22:06:23.762Z,23.33
2022-10-18T22:08:54.111Z,21.77
2022-10-18T22:11:30.287Z,23.17
2022-10-18T22:13:58.101Z,22.35
2022-10-18T22:16:26.054Z,22.58
2022-10-18T22:18:56.862Z,28.50
2022-10-18T22:21:24.083Z,21.63
2022-10-18T22:23:52.869Z,22.90
2022-10-18T22:26:33.641Z,26.73
2022-10-18T22:29:21.098Z,24.42
2022-10-18T22:31:50.488Z,26.45
2022-10-18T22:34:23.490Z,22.70
2022-10-18T22:36:50.918Z,22.95
2022-10-18T22:39:18.429Z,24.33
2022-10-18T22:41:46.553Z,25.15
2022-10-18T22:44:14.555Z,19.17
2022-10-18T22:46:41.964Z,23.45
2022-10-18T22:49:09.451Z,22.23
2022-10-18T22:51:36.680Z,18.50
2022-10-18T22:54:04.018Z,19.02
2022-10-18T22:56:31.172Z,27.88
2022-10-18T22:58:58.387Z,16.05
2022-10-18T23:01:25.583Z,27.30
2022-10-18T23:03:57.408Z,14.65
2022-10-18T23:06:29.498Z,20.55
2022-10-18T23:08:57.952Z,19.83
2022-10-18T23:11:26.692Z,21.47
2022-10-18T23:13:53.909Z,26.35
2022-10-18T23:16:21.431Z,17.80
2022-10-18T23:18:53.458Z,16.00
2022-10-18T23:21:20.813Z,22.10
2022-10-18T23:23:48.020Z,21.10
2022-10-18T23:26:17.238Z,15.88
2022-10-18T23:31:18.833Z,18.95
2022-10-18T23:33:47.806Z,13.38
2022-10-18T23:36:15.431Z,13.25
2022-10-18T23:38:43.006Z,22.52
2022-10-18T23:41:11.813Z,12.32
2022-10-18T23:43:39.383Z,15.27
2022-10-18T23:46:06.809Z,11.80
2022-10-18T23:48:34.282Z,14.00
2022-10-18T23:51:02.097Z,17.05
2022-10-18T23:53:29.289Z,15.50
2022-10-18T23:55:58.938Z,19.27
2022-10-18T23:58:27.163Z,12.27
